Terminal Aerodrome Forecast
Issued by NWS

Home | Current Version | Previous Version | Text Only | Print | Product List | Glossary On
Versions: 1 2 3 4 5 6 7 8 9 10 11 12 13 14 15 16 17 18 19 20 21 22 23 24 25 26 27 28 29 30
000
FTUS41 KBOX 252325
TAFFMH
TAF
KFMH 252325Z 2600/2624 30009KT P6SM SCT200
     FM260600 34005KT P6SM FEW150
     FM260900 02004KT P6SM BKN090
     FM261200 03005KT P6SM OVC035
     FM261400 05009KT P6SM OVC025
     FM261700 06012G20KT P6SM OVC020
     FM262000 06013G26KT 3SM -SN OVC015=

USA.gov is the U.S. government's official web portal to all federal, state and local government web resources and services.